Time;durP1;ratioP1;P1;durP2;ratioP2;P2;SDS_P1;SDS_P2;PMS_P1;PMS_P2;Temp;Humidity;BMP_temperature;BMP_pressure;BME280_temperature;BME280_humidity;BME280_pressure;Samples;Min_cycle;Max_cycle;Signal;HPM_P1;HPM_P2
2023/09/16 00:00:13;;;;;;;2.13;1.92;;;13.90;99.90;13.90;100919.00;;;;4985406;27;121539;-67
2023/09/16 00:02:39;;;;;;;2.00;1.80;;;13.90;99.90;13.90;100918.00;;;;4988358;28;94063;-68
2023/09/16 00:05:05;;;;;;;3.07;2.60;;;13.90;99.90;13.90;100920.00;;;;4962834;27;103682;-70
2023/09/16 00:07:32;;;;;;;2.60;1.75;;;13.80;99.90;13.80;100916.00;;;;4992946;27;93415;-68
2023/09/16 00:09:58;;;;;;;2.10;1.87;;;13.80;99.90;13.80;100922.00;;;;4975738;28;104667;-67
2023/09/16 00:12:27;;;;;;;1.75;1.65;;;13.80;99.90;13.80;100917.00;;;;4988385;27;108804;-67
2023/09/16 00:14:52;;;;;;;1.73;1.63;;;13.80;99.90;13.80;100918.00;;;;4989843;27;107964;-67
2023/09/16 00:17:19;;;;;;;3.93;2.30;;;13.70;99.90;13.70;100914.00;;;;4989750;28;121718;-66
2023/09/16 00:19:45;;;;;;;1.63;1.53;;;13.70;99.90;13.70;100916.00;;;;4990220;27;121094;-68
2023/09/16 00:22:11;;;;;;;1.63;1.50;;;13.70;99.90;13.70;100922.00;;;;4988072;27;112010;-67
2023/09/16 00:24:37;;;;;;;3.87;2.43;;;13.70;99.90;13.70;100915.00;;;;4972711;28;93271;-66
2023/09/16 00:27:04;;;;;;;2.33;1.87;;;13.60;99.90;13.60;100914.00;;;;4988324;27;108477;-67
2023/09/16 00:29:30;;;;;;;2.43;1.97;;;13.60;99.90;13.60;100915.00;;;;4987792;27;117437;-67
2023/09/16 00:31:56;;;;;;;2.17;1.97;;;13.60;99.90;13.60;100915.00;;;;4990896;27;110738;-67
2023/09/16 00:34:22;;;;;;;2.53;2.33;;;13.60;99.90;13.60;100919.00;;;;4986574;27;92739;-67
2023/09/16 00:36:47;;;;;;;3.17;2.07;;;13.60;99.90;13.50;100919.00;;;;4991042;27;115396;-67
2023/09/16 00:39:13;;;;;;;1.93;1.73;;;13.50;99.90;13.50;100915.00;;;;4988168;27;120869;-68
2023/09/16 00:41:40;;;;;;;1.60;1.50;;;13.50;99.90;13.50;100914.00;;;;4994070;27;109987;-67
2023/09/16 00:44:06;;;;;;;2.33;2.10;;;13.50;99.90;13.50;100911.00;;;;4996074;27;92425;-68
2023/09/16 00:46:31;;;;;;;2.73;2.03;;;13.50;99.90;13.50;100910.00;;;;4995873;27;100401;-67
2023/09/16 00:49:00;;;;;;;2.57;1.47;;;13.50;99.90;13.40;100904.00;;;;4992697;27;120808;-67
2023/09/16 00:51:27;;;;;;;5.47;1.83;;;13.50;99.90;13.40;100902.00;;;;4998452;27;93835;-67
2023/09/16 00:53:53;;;;;;;2.30;1.93;;;13.40;99.90;13.40;100907.00;;;;4990235;27;107493;-67
2023/09/16 00:56:19;;;;;;;3.50;1.73;;;13.40;99.90;13.40;100895.00;;;;4996970;27;93824;-69
2023/09/16 00:58:45;;;;;;;1.63;1.53;;;13.40;99.90;13.40;100903.00;;;;4973910;27;123354;-68
2023/09/16 01:01:13;;;;;;;2.50;1.90;;;13.30;99.90;13.30;100894.00;;;;4994517;27;111048;-67
2023/09/16 01:03:41;;;;;;;3.90;2.60;;;13.30;99.90;13.30;100892.00;;;;4988901;27;92730;-67
2023/09/16 01:06:07;;;;;;;4.47;1.83;;;13.30;99.90;13.30;100886.00;;;;4991560;27;93130;-66
2023/09/16 01:08:36;;;;;;;5.33;2.10;;;13.30;99.90;13.30;100893.00;;;;4997432;27;99917;-67
2023/09/16 01:11:05;;;;;;;3.80;2.60;;;13.30;99.90;13.20;100884.00;;;;4993537;27;92707;-67
2023/09/16 01:13:35;;;;;;;1.87;1.63;;;13.20;99.90;13.20;100894.00;;;;4989211;27;92825;-67
2023/09/16 01:16:16;;;;;;;4.67;2.30;;;13.20;99.90;13.20;100896.00;;;;4991619;27;115791;-67
2023/09/16 01:18:50;;;;;;;7.40;2.40;;;13.20;99.90;13.20;100889.00;;;;4965902;28;114509;-67
2023/09/16 01:21:17;;;;;;;2.27;2.03;;;13.20;99.90;13.20;100901.00;;;;4991765;27;96273;-68
2023/09/16 01:23:44;;;;;;;1.93;1.70;;;13.10;99.90;13.10;100897.00;;;;4987313;27;103456;-68
2023/09/16 01:26:10;;;;;;;3.37;2.10;;;13.10;99.90;13.10;100896.00;;;;4984133;27;93799;-67
2023/09/16 01:28:36;;;;;;;2.77;2.10;;;13.10;99.90;13.10;100890.00;;;;4986863;27;93729;-67
2023/09/16 01:31:06;;;;;;;2.10;1.77;;;13.10;99.90;13.10;100887.00;;;;4967206;28;92960;-67
2023/09/16 01:33:48;;;;;;;2.13;1.80;;;13.10;99.90;13.00;100874.00;;;;4978233;27;93571;-68
2023/09/16 01:36:19;;;;;;;2.97;2.03;;;13.10;99.90;13.10;100888.00;;;;4970486;27;93061;-68
2023/09/16 01:38:52;;;;;;;2.27;1.90;;;13.00;99.90;13.10;100881.00;;;;4986320;27;94069;-68
2023/09/16 01:41:19;;;;;;;2.70;2.50;;;13.00;99.90;13.00;100884.00;;;;4968904;28;93749;-68
2023/09/16 01:43:45;;;;;;;3.53;2.10;;;13.00;99.90;13.00;100884.00;;;;4969354;28;93006;-68
2023/09/16 01:46:12;;;;;;;3.20;2.20;;;13.00;99.90;13.00;100879.00;;;;4990966;27;93201;-68
2023/09/16 01:48:37;;;;;;;3.37;2.53;;;13.00;99.90;13.00;100885.00;;;;4986851;27;93603;-67
2023/09/16 01:51:03;;;;;;;2.60;2.27;;;13.00;99.90;13.00;100887.00;;;;4985031;27;102875;-68
2023/09/16 01:53:29;;;;;;;3.33;1.90;;;13.00;99.90;13.00;100882.00;;;;4990215;27;109513;-69
2023/09/16 01:55:55;;;;;;;2.33;2.07;;;13.00;99.90;13.00;100892.00;;;;4988910;27;93034;-68
2023/09/16 01:58:20;;;;;;;2.40;2.20;;;13.00;99.90;13.00;100885.00;;;;4984438;27;123588;-67
2023/09/16 02:00:46;;;;;;;3.37;3.07;;;13.00;99.90;13.00;100877.00;;;;4990137;27;109281;-68
2023/09/16 02:03:12;;;;;;;2.13;1.70;;;13.00;99.90;13.00;100878.00;;;;4988764;28;92957;-68
2023/09/16 02:05:37;;;;;;;4.53;2.80;;;13.00;99.90;13.00;100887.00;;;;4989148;28;94523;-67
2023/09/16 02:08:03;;;;;;;5.10;3.03;;;13.00;99.90;13.00;100882.00;;;;4984302;27;114910;-68
2023/09/16 02:10:29;;;;;;;2.77;2.20;;;13.00;99.90;12.90;100884.00;;;;4991262;27;101969;-67
2023/09/16 02:12:55;;;;;;;2.07;1.87;;;12.90;99.90;12.90;100875.00;;;;4991289;27;108364;-67
2023/09/16 02:15:20;;;;;;;3.27;2.97;;;12.90;99.90;12.90;100871.00;;;;4991850;27;123401;-68
2023/09/16 02:17:46;;;;;;;3.50;2.70;;;12.90;99.90;12.90;100870.00;;;;4990910;27;117941;-68
2023/09/16 02:20:12;;;;;;;2.20;1.90;;;12.90;99.90;12.90;100864.00;;;;4988125;28;109648;-68
2023/09/16 02:22:40;;;;;;;3.43;1.97;;;12.90;99.90;12.90;100857.00;;;;4990685;28;92249;-67
2023/09/16 02:25:06;;;;;;;3.00;2.20;;;12.90;99.90;12.90;100862.00;;;;4991215;28;94201;-67
2023/09/16 02:27:33;;;;;;;2.33;2.10;;;12.90;99.90;12.90;100865.00;;;;4989158;27;115889;-68
2023/09/16 02:29:58;;;;;;;2.63;1.90;;;12.80;99.90;12.90;100856.00;;;;4993417;27;94203;-67
2023/09/16 02:32:24;;;;;;;3.33;2.03;;;12.80;99.90;12.90;100857.00;;;;4995664;27;95177;-67
2023/09/16 02:34:50;;;;;;;3.07;2.50;;;12.80;99.90;12.80;100854.00;;;;4990220;28;94210;-67
2023/09/16 02:37:15;;;;;;;2.43;2.23;;;12.80;99.90;12.80;100849.00;;;;4989581;27;117162;-66
2023/09/16 02:39:41;;;;;;;2.73;1.90;;;12.80;99.90;12.80;100846.00;;;;4991021;28;110499;-66
2023/09/16 02:42:07;;;;;;;3.57;1.87;;;12.80;99.90;12.80;100845.00;;;;4991864;27;108764;-65
2023/09/16 02:44:32;;;;;;;2.70;2.50;;;12.80;99.90;12.80;100844.00;;;;4996299;28;123838;-66
2023/09/16 02:46:58;;;;;;;5.47;3.33;;;12.80;99.90;12.80;100837.00;;;;4989715;27;122034;-66
2023/09/16 02:49:25;;;;;;;2.57;2.30;;;12.80;99.90;12.80;100845.00;;;;4993525;28;92976;-66
2023/09/16 02:51:51;;;;;;;2.97;2.67;;;12.80;99.90;12.70;100837.00;;;;4993518;27;92907;-66
2023/09/16 02:54:16;;;;;;;3.23;2.67;;;12.70;99.90;12.70;100832.00;;;;4988489;27;124801;-66
2023/09/16 02:56:42;;;;;;;3.47;2.20;;;12.70;99.90;12.70;100831.00;;;;4991925;27;94567;-66
2023/09/16 02:59:08;;;;;;;5.57;2.70;;;12.70;99.90;12.70;100827.00;;;;4991191;27;109457;-66
2023/09/16 03:01:33;;;;;;;3.83;2.50;;;12.70;99.90;12.70;100821.00;;;;4989065;27;108929;-66
2023/09/16 03:04:03;;;;;;;3.60;2.27;;;12.70;99.90;12.70;100827.00;;;;4994368;28;120587;-67
2023/09/16 03:06:28;;;;;;;2.70;2.50;;;12.70;99.90;12.70;100828.00;;;;4992717;28;93320;-65
2023/09/16 03:08:54;;;;;;;2.23;1.83;;;12.70;99.90;12.70;100826.00;;;;4988592;27;110732;-66
2023/09/16 03:11:20;;;;;;;3.83;2.90;;;12.70;99.90;12.70;100826.00;;;;4987873;27;110937;-66
2023/09/16 03:13:45;;;;;;;2.40;2.20;;;12.60;99.90;12.70;100827.00;;;;4991334;27;94143;-66
2023/09/16 03:16:22;;;;;;;2.93;2.30;;;12.70;99.90;12.60;100825.00;;;;4978875;27;93127;-66
2023/09/16 03:18:50;;;;;;;2.40;2.20;;;12.60;99.90;12.60;100827.00;;;;4971131;28;95145;-66
2023/09/16 03:21:18;;;;;;;4.10;1.90;;;12.60;99.90;12.60;100821.00;;;;4992536;27;94289;-66
2023/09/16 03:23:45;;;;;;;2.30;2.10;;;12.60;99.90;12.60;100822.00;;;;4993621;27;115231;-66
2023/09/16 03:26:11;;;;;;;3.87;2.83;;;12.60;99.90;12.60;100807.00;;;;4994596;27;93648;-67
2023/09/16 03:28:42;;;;;;;3.93;2.53;;;12.60;99.90;12.50;100808.00;;;;4991728;27;93503;-67
2023/09/16 03:31:08;;;;;;;3.37;2.67;;;12.50;99.90;12.50;100801.00;;;;4991588;28;92910;-66
2023/09/16 03:33:35;;;;;;;2.60;2.07;;;12.50;99.90;12.50;100808.00;;;;4990961;27;93643;-67
2023/09/16 03:36:01;;;;;;;2.97;2.03;;;12.50;99.90;12.50;100803.00;;;;4992507;27;109940;-67
2023/09/16 03:38:30;;;;;;;2.93;2.40;;;12.50;99.90;12.50;100802.00;;;;4992699;28;92732;-67
2023/09/16 03:40:59;;;;;;;3.47;2.77;;;12.50;99.90;12.50;100805.00;;;;4993039;28;95254;-67
2023/09/16 03:43:25;;;;;;;3.63;2.03;;;12.50;99.90;12.50;100801.00;;;;4990005;27;101559;-67
2023/09/16 03:45:51;;;;;;;2.83;2.63;;;12.40;99.90;12.40;100811.00;;;;4991311;27;94675;-67
2023/09/16 03:48:17;;;;;;;2.43;2.07;;;12.40;99.90;12.40;100799.00;;;;4989976;27;109557;-67
2023/09/16 03:50:42;;;;;;;3.67;2.87;;;12.40;99.90;12.40;100794.00;;;;4989608;27;108365;-67
2023/09/16 03:53:09;;;;;;;3.33;2.23;;;12.40;99.90;12.40;100792.00;;;;4989776;27;112170;-68
2023/09/16 03:55:35;;;;;;;2.43;2.23;;;12.40;99.90;12.40;100787.00;;;;4990672;28;93743;-67
2023/09/16 03:58:01;;;;;;;2.37;2.17;;;12.40;99.90;12.40;100779.00;;;;4989782;27;93153;-67
2023/09/16 04:00:28;;;;;;;4.37;2.13;;;12.40;99.90;12.40;100791.00;;;;4997032;27;92245;-67
2023/09/16 04:02:54;;;;;;;3.57;2.70;;;12.40;99.90;12.40;100789.00;;;;4990487;28;107759;-67
2023/09/16 04:05:20;;;;;;;2.47;2.27;;;12.40;99.90;12.40;100788.00;;;;4990742;27;115458;-67
2023/09/16 04:07:47;;;;;;;4.27;2.33;;;12.40;99.90;12.30;100791.00;;;;4991981;27;101454;-67
2023/09/16 04:10:13;;;;;;;3.13;2.07;;;12.40;99.90;12.30;100793.00;;;;4989024;27;92822;-67
2023/09/16 04:12:38;;;;;;;3.00;2.33;;;12.30;99.90;12.30;100789.00;;;;4988564;27;93004;-65
2023/09/16 04:15:05;;;;;;;3.20;2.07;;;12.30;99.90;12.30;100789.00;;;;4988797;28;117592;-67
2023/09/16 04:17:31;;;;;;;2.70;2.20;;;12.30;99.90;12.20;100798.00;;;;4990884;27;97136;-66
2023/09/16 04:19:57;;;;;;;2.40;2.17;;;12.30;99.90;12.20;100797.00;;;;4989110;28;108335;-66
2023/09/16 04:22:22;;;;;;;3.43;2.47;;;12.20;99.90;12.20;100797.00;;;;4987294;28;120917;-66
2023/09/16 04:24:48;;;;;;;2.93;1.97;;;12.20;99.90;12.10;100792.00;;;;4987868;28;104659;-66
2023/09/16 04:27:14;;;;;;;3.57;2.37;;;12.20;99.90;12.10;100795.00;;;;4988755;28;93259;-66
2023/09/16 04:29:40;;;;;;;7.37;3.00;;;12.10;99.90;12.10;100796.00;;;;4987534;27;107190;-67
2023/09/16 04:32:05;;;;;;;2.90;2.27;;;12.10;99.90;12.00;100797.00;;;;4988048;27;124705;-65
2023/09/16 04:34:32;;;;;;;3.43;2.07;;;12.10;99.90;12.00;100803.00;;;;4989444;28;123469;-66
2023/09/16 04:36:59;;;;;;;2.70;2.50;;;12.00;99.90;12.00;100794.00;;;;4990672;27;93900;-66
2023/09/16 04:39:26;;;;;;;3.83;3.30;;;12.00;99.90;11.90;100802.00;;;;4988265;27;92937;-65
2023/09/16 04:41:53;;;;;;;3.80;2.47;;;12.00;99.90;11.90;100810.00;;;;4988276;28;123342;-65
2023/09/16 04:44:23;;;;;;;3.37;2.47;;;11.90;99.90;11.90;100810.00;;;;4988874;27;93607;-66
2023/09/16 04:46:53;;;;;;;4.20;2.67;;;11.90;99.90;11.90;100803.00;;;;4969268;28;103153;-66
2023/09/16 04:49:22;;;;;;;2.70;2.17;;;11.90;99.90;11.80;100807.00;;;;4991285;28;92621;-66
2023/09/16 04:51:48;;;;;;;2.13;1.93;;;11.90;99.90;11.80;100810.00;;;;4996397;27;94085;-66
2023/09/16 04:54:14;;;;;;;2.83;2.57;;;11.80;99.90;11.80;100813.00;;;;4992119;27;122359;-65
2023/09/16 04:56:40;;;;;;;2.90;2.07;;;11.90;99.90;11.80;100806.00;;;;4991184;28;109571;-67
2023/09/16 04:59:05;;;;;;;3.73;2.63;;;11.80;99.90;11.80;100811.00;;;;4987898;27;107074;-66
2023/09/16 05:01:32;;;;;;;6.47;2.27;;;11.80;99.90;11.80;100798.00;;;;4989316;27;123707;-66
2023/09/16 05:03:59;;;;;;;2.77;2.33;;;11.80;99.90;11.80;100804.00;;;;4990121;27;93621;-66
2023/09/16 05:06:25;;;;;;;3.93;3.07;;;11.80;99.90;11.80;100806.00;;;;4987039;27;93147;-67
2023/09/16 05:08:50;;;;;;;2.37;1.83;;;11.80;99.90;11.80;100795.00;;;;4985259;27;103465;-67
2023/09/16 05:11:16;;;;;;;2.47;2.20;;;11.80;99.90;11.80;100803.00;;;;4988479;28;124314;-68
2023/09/16 05:13:45;;;;;;;5.30;3.00;;;11.80;99.90;11.90;100802.00;;;;4987581;28;120967;-67
2023/09/16 05:16:10;;;;;;;2.57;2.37;;;11.90;99.90;11.90;100805.00;;;;4988943;27;93060;-67
2023/09/16 05:18:36;;;;;;;3.77;2.43;;;11.90;99.90;12.00;100806.00;;;;4987644;27;92922;-68
2023/09/16 05:21:02;;;;;;;2.13;1.70;;;12.00;99.90;12.10;100808.00;;;;4992120;28;94519;-67
2023/09/16 05:23:30;;;;;;;4.40;2.43;;;12.10;99.90;12.30;100802.00;;;;4991785;27;96066;-66
2023/09/16 05:25:56;;;;;;;2.67;2.43;;;12.20;99.90;12.40;100807.00;;;;4988232;27;93117;-66
2023/09/16 05:28:22;;;;;;;3.47;1.80;;;12.40;99.90;12.60;100809.00;;;;4983380;28;107793;-66
2023/09/16 05:30:48;;;;;;;5.30;3.27;;;12.50;99.90;12.80;100812.00;;;;4988231;28;123597;-67
2023/09/16 05:33:14;;;;;;;3.53;2.67;;;12.70;99.90;12.90;100808.00;;;;4964565;28;121175;-66
2023/09/16 05:35:41;;;;;;;5.57;2.97;;;12.80;99.90;13.10;100803.00;;;;4986335;27;92870;-67
2023/09/16 05:38:08;;;;;;;2.03;1.80;;;13.00;99.90;13.20;100801.00;;;;4985749;27;92551;-66
2023/09/16 05:40:36;;;;;;;2.50;2.20;;;13.10;99.90;13.40;100797.00;;;;4970781;28;93625;-67
2023/09/16 05:43:01;;;;;;;3.60;2.30;;;13.30;99.90;13.50;100800.00;;;;4990076;27;94042;-67
2023/09/16 05:45:27;;;;;;;3.60;2.70;;;13.40;99.90;13.60;100809.00;;;;4987983;27;93796;-67
2023/09/16 05:47:53;;;;;;;2.20;2.00;;;13.50;99.90;13.60;100810.00;;;;4984982;27;107879;-67
2023/09/16 05:50:18;;;;;;;2.50;1.83;;;13.60;99.90;13.70;100814.00;;;;4990735;27;92843;-67
2023/09/16 05:52:44;;;;;;;8.00;2.53;;;13.60;99.90;13.80;100811.00;;;;4988737;27;121455;-67
2023/09/16 05:55:10;;;;;;;3.30;2.43;;;13.70;99.90;13.90;100816.00;;;;4986240;27;110135;-67
2023/09/16 05:57:35;;;;;;;2.20;2.00;;;13.80;99.90;14.10;100819.00;;;;4970853;28;93207;-68
2023/09/16 06:00:02;;;;;;;2.63;2.43;;;13.90;99.90;14.20;100816.00;;;;4989726;27;123175;-66
2023/09/16 06:02:28;;;;;;;2.60;2.40;;;14.10;99.90;14.30;100813.00;;;;4994102;27;93415;-67
2023/09/16 06:04:54;;;;;;;2.55;2.35;;;14.20;99.90;14.50;100816.00;;;;4991648;27;93630;-67
2023/09/16 06:07:20;;;;;;;4.55;2.15;;;14.30;99.90;14.60;100811.00;;;;4990778;28;109001;-68
2023/09/16 06:09:59;;;;;;;3.17;2.28;;;14.40;99.90;14.70;100820.00;;;;4988507;28;94340;-66
2023/09/16 06:12:25;;;;;;;3.40;2.22;;;14.60;99.90;14.80;100828.00;;;;4990868;28;122950;-65
2023/09/16 06:14:51;;;;;;;2.75;2.50;;;14.70;99.90;15.00;100821.00;;;;4988640;27;110021;-66
2023/09/16 06:17:19;;;;;;;3.00;2.35;;;14.80;99.90;15.10;100828.00;;;;4988714;28;107711;-67
2023/09/16 06:19:45;;;;;;;2.00;1.90;;;15.00;99.90;15.20;100817.00;;;;4968814;28;93324;-68
2023/09/16 06:22:13;;;;;;;2.65;1.88;;;15.10;99.90;15.50;100824.00;;;;4987955;28;111268;-69
2023/09/16 06:24:39;;;;;;;2.20;1.92;;;15.30;99.90;15.70;100810.00;;;;4986296;28;92895;-66
2023/09/16 06:27:05;;;;;;;3.17;1.85;;;15.50;99.90;15.90;100815.00;;;;4986418;27;96438;-67
2023/09/16 06:29:30;;;;;;;2.25;2.05;;;15.70;99.90;16.10;100820.00;;;;4985514;28;92958;-67
2023/09/16 06:31:56;;;;;;;2.28;1.83;;;15.90;99.90;16.30;100815.00;;;;4988612;27;123398;-68
2023/09/16 06:34:22;;;;;;;1.48;1.40;;;16.10;99.90;16.60;100818.00;;;;4987820;27;110546;-67
2023/09/16 06:36:47;;;;;;;2.05;1.75;;;16.40;99.90;16.90;100823.00;;;;4986440;27;109035;-67
2023/09/16 06:39:13;;;;;;;2.42;1.83;;;16.70;99.90;17.10;100814.00;;;;4987134;27;122356;-67
2023/09/16 06:41:39;;;;;;;2.22;2.00;;;16.90;99.90;17.40;100808.00;;;;4986079;27;121526;-67
2023/09/16 06:44:04;;;;;;;3.33;2.60;;;17.20;99.90;17.70;100815.00;;;;4988806;27;109547;-66
2023/09/16 06:46:30;;;;;;;5.85;2.33;;;17.40;99.90;17.90;100808.00;;;;4984899;28;108810;-67
2023/09/16 06:48:56;;;;;;;2.20;1.67;;;17.70;99.90;18.20;100816.00;;;;4985719;27;119033;-67
2023/09/16 06:51:21;;;;;;;2.22;2.03;;;17.90;99.90;18.40;100808.00;;;;4988348;27;121804;-65
2023/09/16 06:53:47;;;;;;;3.10;1.70;;;18.20;99.90;18.60;100817.00;;;;4990045;27;111205;-66
2023/09/16 06:56:13;;;;;;;1.90;1.80;;;18.30;99.90;18.80;100816.00;;;;4985703;27;92848;-67
2023/09/16 06:58:38;;;;;;;2.55;1.05;;;18.60;99.90;19.00;100803.00;;;;4984920;27;122672;-66
2023/09/16 07:01:09;;;;;;;3.58;1.88;;;18.70;99.90;19.20;100807.00;;;;4985205;27;122512;-67
2023/09/16 07:03:35;;;;;;;1.20;1.10;;;18.90;99.90;19.40;100810.00;;;;4988180;27;93122;-67
2023/09/16 07:06:01;;;;;;;7.57;2.35;;;19.10;99.90;19.60;100803.00;;;;4985919;27;104077;-67
2023/09/16 07:08:27;;;;;;;1.15;1.08;;;19.30;99.90;19.80;100809.00;;;;4986343;27;94098;-66
2023/09/16 07:10:54;;;;;;;1.88;1.45;;;19.50;99.90;20.00;100808.00;;;;4986501;28;93376;-66
2023/09/16 07:13:20;;;;;;;1.70;1.23;;;19.70;99.90;20.30;100806.00;;;;4986116;27;93311;-65
2023/09/16 07:15:55;;;;;;;1.60;1.33;;;19.90;99.90;20.60;100812.00;;;;4988289;28;108625;-66
2023/09/16 07:18:21;;;;;;;2.55;1.48;;;20.20;99.90;20.80;100806.00;;;;4987009;27;93173;-66
2023/09/16 07:20:49;;;;;;;2.03;1.17;;;20.50;99.90;21.00;100822.00;;;;4984630;27;106281;-66
2023/09/16 07:23:40;;;;;;;2.45;1.35;;;20.70;99.90;21.40;100811.00;;;;4986814;27;94133;-66
2023/09/16 07:26:05;;;;;;;1.40;1.30;;;21.10;99.90;21.60;100808.00;;;;4983252;27;105615;-66
2023/09/16 07:28:31;;;;;;;1.70;1.10;;;21.30;99.90;21.80;100801.00;;;;4983175;28;122699;-67
2023/09/16 07:30:57;;;;;;;1.45;1.35;;;21.50;99.90;21.90;100797.00;;;;4988040;27;93444;-67
2023/09/16 07:33:25;;;;;;;2.13;1.52;;;21.60;99.90;22.00;100797.00;;;;4985526;27;111628;-67
2023/09/16 07:35:52;;;;;;;2.33;1.58;;;21.80;99.90;22.30;100796.00;;;;4990235;27;108875;-67
2023/09/16 07:38:17;;;;;;;1.58;1.45;;;22.00;99.70;22.50;100794.00;;;;4989924;28;94163;-66
2023/09/16 07:40:43;;;;;;;2.25;1.52;;;22.20;98.50;22.70;100797.00;;;;4990358;27;95987;-67
2023/09/16 07:43:11;;;;;;;3.10;2.03;;;22.40;98.00;23.00;100796.00;;;;4984572;27;110434;-67
2023/09/16 07:45:38;;;;;;;1.95;1.48;;;22.70;97.80;23.20;100795.00;;;;4988134;27;93672;-67
2023/09/16 07:48:07;;;;;;;1.67;1.58;;;22.90;96.50;23.20;100798.00;;;;4987487;27;94750;-67
2023/09/16 07:50:33;;;;;;;1.23;1.13;;;23.00;96.00;23.20;100802.00;;;;4985147;27;93606;-67
2023/09/16 07:52:58;;;;;;;1.15;1.05;;;23.00;95.90;23.40;100796.00;;;;4989695;27;99792;-67
2023/09/16 07:55:24;;;;;;;0.60;0.60;;;23.10;95.20;23.40;100787.00;;;;4985102;27;109132;-68
2023/09/16 07:57:50;;;;;;;1.70;1.48;;;23.20;95.00;23.60;100798.00;;;;4986267;27;93971;-68
2023/09/16 08:00:15;;;;;;;1.95;1.25;;;23.30;94.30;23.60;100802.00;;;;4985595;27;105324;-68
2023/09/16 08:02:41;;;;;;;1.10;0.98;;;23.30;93.80;23.60;100803.00;;;;4987779;27;98307;-67
2023/09/16 08:05:07;;;;;;;1.63;1.35;;;23.40;93.10;23.60;100802.00;;;;4987559;27;102298;-68
2023/09/16 08:07:34;;;;;;;1.45;1.35;;;23.40;93.40;23.90;100804.00;;;;4988445;27;116782;-68
2023/09/16 08:10:01;;;;;;;1.30;1.20;;;23.50;93.70;24.20;100804.00;;;;4986482;27;92912;-68
2023/09/16 08:12:27;;;;;;;1.17;1.00;;;23.80;93.40;24.60;100813.00;;;;4985401;27;94051;-68
2023/09/16 08:14:53;;;;;;;0.73;0.73;;;24.20;92.60;24.90;100807.00;;;;4984517;27;108806;-68
2023/09/16 08:17:18;;;;;;;2.20;1.60;;;24.50;91.90;25.20;100818.00;;;;4986371;27;121223;-68
2023/09/16 08:19:44;;;;;;;1.83;1.17;;;24.80;91.30;25.50;100810.00;;;;4987679;27;93006;-68
2023/09/16 08:22:09;;;;;;;1.33;1.23;;;25.10;90.80;25.80;100810.00;;;;4983991;27;110909;-67
2023/09/16 08:24:35;;;;;;;1.98;1.13;;;25.40;90.30;26.10;100816.00;;;;4984915;27;108828;-68
2023/09/16 08:27:01;;;;;;;1.88;1.10;;;25.70;89.80;26.50;100805.00;;;;4985220;27;121808;-68
2023/09/16 08:29:28;;;;;;;1.25;1.15;;;26.10;87.90;26.70;100810.00;;;;4993353;27;122206;-67
2023/09/16 08:31:54;;;;;;;2.65;1.20;;;26.30;87.20;26.90;100813.00;;;;4985941;27;92917;-68
2023/09/16 08:34:19;;;;;;;2.00;1.05;;;26.60;83.30;27.20;100805.00;;;;4992632;27;108922;-68
2023/09/16 08:36:45;;;;;;;1.60;1.08;;;26.80;82.40;27.40;100797.00;;;;4990278;27;124509;-67
2023/09/16 08:39:11;;;;;;;2.20;1.30;;;27.00;82.00;27.70;100806.00;;;;4984674;27;122941;-68
2023/09/16 08:41:48;;;;;;;1.88;1.20;;;27.30;80.00;27.90;100799.00;;;;4971401;27;108348;-67
2023/09/16 08:44:17;;;;;;;1.73;1.20;;;27.50;78.40;28.20;100790.00;;;;4985043;27;92661;-68
2023/09/16 08:46:51;;;;;;;2.95;1.25;;;27.70;73.50;28.30;100791.00;;;;4986166;27;116061;-67
2023/09/16 08:49:19;;;;;;;0.80;0.80;;;27.90;72.40;28.40;100788.00;;;;4967426;27;93551;-65
2023/09/16 08:51:48;;;;;;;1.35;1.20;;;28.00;69.00;28.50;100791.00;;;;4986202;27;111772;-66
2023/09/16 08:54:18;;;;;;;1.33;0.85;;;28.10;67.90;28.60;100796.00;;;;4983857;27;92293;-67
2023/09/16 08:56:45;;;;;;;1.33;1.15;;;28.20;67.00;28.60;100790.00;;;;4962722;28;94766;-68
2023/09/16 08:59:12;;;;;;;1.58;1.05;;;28.30;66.70;28.80;100794.00;;;;4983696;27;120596;-67
2023/09/16 09:01:37;;;;;;;1.67;1.58;;;28.40;63.10;28.80;100794.00;;;;4984404;27;94059;-67
2023/09/16 09:04:04;;;;;;;1.52;1.20;;;28.50;59.70;28.50;100789.00;;;;4966968;27;96398;-66
2023/09/16 09:06:30;;;;;;;1.42;1.25;;;28.30;60.30;28.40;100794.00;;;;4986132;27;98697;-67
2023/09/16 09:08:56;;;;;;;1.95;1.30;;;28.20;59.90;28.30;100783.00;;;;4985988;27;122003;-67
2023/09/16 09:11:23;;;;;;;1.35;0.93;;;28.00;60.00;28.20;100784.00;;;;4983023;27;92906;-67
2023/09/16 09:13:49;;;;;;;1.20;0.80;;;28.30;61.80;28.40;100780.00;;;;4967899;28;93057;-66
2023/09/16 09:16:17;;;;;;;1.00;0.93;;;28.00;62.10;28.60;100782.00;;;;4984203;27;93629;-67
2023/09/16 09:18:46;;;;;;;1.42;1.20;;;28.10;61.30;28.70;100773.00;;;;4965307;27;92657;-66
2023/09/16 09:21:13;;;;;;;1.67;0.95;;;28.30;58.60;28.50;100773.00;;;;4958775;28;93066;-67
2023/09/16 09:23:39;;;;;;;0.77;0.60;;;28.20;59.00;28.60;100767.00;;;;4956306;28;93035;-67
2023/09/16 09:26:05;;;;;;;0.90;0.90;;;28.20;59.00;28.80;100774.00;;;;4976849;27;95013;-68
2023/09/16 09:28:32;;;;;;;1.17;0.98;;;28.30;56.90;28.80;100768.00;;;;4982210;27;93482;-66
2023/09/16 09:30:59;;;;;;;1.75;1.30;;;28.30;57.80;29.00;100761.00;;;;4985443;27;93578;-68
2023/09/16 09:33:27;;;;;;;1.42;1.33;;;28.50;57.80;29.30;100755.00;;;;4968265;28;109852;-69
2023/09/16 09:36:14;;;;;;;1.73;1.08;;;28.50;57.10;29.40;100752.00;;;;4970815;28;93348;-69
2023/09/16 09:38:41;;;;;;;1.95;1.70;;;28.80;56.40;29.20;100758.00;;;;4984340;28;93399;-70
2023/09/16 09:41:07;;;;;;;1.55;1.45;;;28.70;55.70;29.10;100742.00;;;;4969078;28;92977;-68
2023/09/16 09:43:33;;;;;;;1.30;0.88;;;28.60;56.20;29.00;100748.00;;;;4984032;27;92443;-69
2023/09/16 09:45:59;;;;;;;1.20;1.10;;;28.50;55.70;29.10;100741.00;;;;4965808;28;122673;-68
2023/09/16 09:48:25;;;;;;;1.33;0.98;;;28.50;55.90;29.10;100735.00;;;;4982056;27;120165;-69
2023/09/16 09:50:51;;;;;;;1.55;1.17;;;28.50;55.50;29.00;100734.00;;;;4963244;28;94364;-68
2023/09/16 09:53:17;;;;;;;4.30;1.15;;;28.50;55.80;29.00;100728.00;;;;4983972;27;108044;-69
2023/09/16 09:55:43;;;;;;;2.05;0.90;;;28.50;55.60;29.00;100731.00;;;;4982616;27;122517;-69
2023/09/16 09:58:10;;;;;;;1.15;0.80;;;28.40;56.00;29.20;100735.00;;;;4964268;28;93006;-69
2023/09/16 10:00:36;;;;;;;2.10;1.30;;;28.50;56.20;29.30;100730.00;;;;4982708;27;98191;-69
2023/09/16 10:03:02;;;;;;;1.40;1.15;;;28.70;55.80;29.40;100731.00;;;;4980484;28;108217;-70
2023/09/16 10:05:27;;;;;;;4.88;1.60;;;28.80;55.90;29.30;100733.00;;;;4981620;27;116305;-68
2023/09/16 10:07:53;;;;;;;0.70;0.65;;;28.80;54.80;29.20;100736.00;;;;4973106;28;100604;-68
2023/09/16 10:10:24;;;;;;;1.30;1.20;;;28.80;54.70;29.30;100729.00;;;;4985546;27;93735;-68
2023/09/16 10:12:55;;;;;;;1.33;1.02;;;28.70;55.00;29.50;100732.00;;;;4984571;27;93146;-68
2023/09/16 10:15:33;;;;;;;1.70;1.23;;;28.80;55.30;29.40;100734.00;;;;4967029;28;104074;-70
2023/09/16 10:17:59;;;;;;;2.42;1.40;;;28.90;55.10;29.60;100726.00;;;;4984614;27;94537;-69
2023/09/16 10:20:33;;;;;;;1.20;1.10;;;29.00;55.20;29.80;100740.00;;;;4980800;27;103333;-69
2023/09/16 10:23:00;;;;;;;1.60;0.95;;;29.20;55.10;29.90;100732.00;;;;4960305;27;93095;-69
2023/09/16 10:25:28;;;;;;;1.02;0.90;;;29.30;54.30;29.80;100735.00;;;;4957446;28;96439;-70
2023/09/16 10:28:04;;;;;;;0.95;0.93;;;29.20;54.40;29.90;100725.00;;;;4985670;27;93261;-69
2023/09/16 10:30:31;;;;;;;2.50;1.45;;;29.40;54.10;30.20;100724.00;;;;4963389;28;93298;-71
2023/09/16 10:33:08;;;;;;;1.60;1.30;;;29.50;54.50;30.50;100713.00;;;;4986593;28;92088;-69
2023/09/16 10:35:38;;;;;;;1.10;1.05;;;29.80;53.60;30.60;100718.00;;;;4978226;27;93915;-71
2023/09/16 10:38:05;;;;;;;2.08;0.65;;;30.00;53.50;30.70;100708.00;;;;4987003;27;115083;-69
2023/09/16 10:40:32;;;;;;;0.77;0.73;;;30.10;53.50;31.00;100706.00;;;;4987770;27;93852;-70